Terminal Aerodrome Forecast
Issued by NWS

Home | Current Version | Previous Version | Text Only | Print | Product List | Glossary On
Versions: 1 2 3 4 5 6 7 8 9 10 11 12 13 14 15 16 17 18 19 20 21 22 23 24 25 26
000
FTAK31 PAFA 131731
TAFAOT
TAF
PAOT 131731Z 1318/1418 10019KT P6SM FEW035
     FM140000 09015KT 1 1/2SM -FZRASN BKN007 OVC015
     FM140300 09014KT 1 1/2SM -SN BR OVC007
     FM141600 14013KT 4SM -SN BR OVC015=

USA.gov is the U.S. government's official web portal to all federal, state and local government web resources and services.